Edmund, South Carolina
Current Conditions -  °F | °C
As of 1:56 AM on Monday 24 Nov 2014 (Local Time) from KCAE Reporting Station
Overcast Overcast  
Wind Chill: 67°   Ceiling: 1800
Heat Index: 67°   Visibility: 10mi
Dew Point: 62°   Wind: 10mph
Humidity: 84%   Direction: 230°SW
Pressure: 29.78"   Gusts: NA
Location:  33.9903°N, 81.2681°W
Report Text: KCAE 240656Z 23009KT 10SM BKN018 OVC026 19/17 A2978 RMK AO2 SLP082 T01940167
Loading
Personal Weather Stations






























Interactive Weather Map New forecast layout! Learn more

10-Day Weather Forecast

Advertisements
Track Severe Weather on mobile